createdAt,value
2018-05-29T00:00:33.573Z,94.38
2018-05-29T00:01:33.560Z,94.58
2018-05-29T00:02:33.543Z,94.87
2018-05-29T00:03:33.524Z,94.87
2018-05-29T00:04:33.514Z,94.77
2018-05-29T00:05:33.504Z,94.87
2018-05-29T00:06:33.514Z,94.58
2018-05-29T00:07:33.489Z,94.48
2018-05-29T00:08:33.474Z,95.06
2018-05-29T00:09:33.467Z,95.16
2018-05-29T00:10:33.461Z,95.35
2018-05-29T00:11:33.475Z,95.35
2018-05-29T00:12:33.448Z,95.54
2018-05-29T00:13:33.433Z,95.64
2018-05-29T00:14:33.419Z,95.45
2018-05-29T00:15:33.434Z,96.31
2018-05-29T00:16:33.418Z,96.31
2018-05-29T00:17:33.412Z,96.03
2018-05-29T00:18:33.387Z,96.61
2018-05-29T00:19:33.377Z,96.70
2018-05-29T00:20:33.372Z,96.75
2018-05-29T00:21:33.380Z,97.33
2018-05-29T00:22:33.367Z,97.04
2018-05-29T00:23:33.339Z,97.14
2018-05-29T00:24:33.335Z,97.81
2018-05-29T00:25:33.327Z,97.91
2018-05-29T00:26:33.316Z,97.72
2018-05-29T00:27:33.324Z,98.68
2018-05-29T00:28:33.298Z,98.29
2018-05-29T00:29:33.292Z,98.39
2018-05-29T00:30:33.291Z,98.58
2018-05-29T00:31:33.270Z,99.07
2018-05-29T00:32:33.276Z,98.97
2018-05-29T00:33:33.249Z,99.55
2018-05-29T00:34:33.239Z,99.26
2018-05-29T00:35:33.237Z,98.82
2018-05-29T00:36:33.225Z,99.50
2018-05-29T00:37:33.231Z,99.30
2018-05-29T00:38:33.223Z,99.99
2018-05-29T00:39:33.194Z,99.69
2018-05-29T00:40:33.187Z,99.98
2018-05-29T00:41:33.181Z,99.60
2018-05-29T00:42:33.169Z,99.88
2018-05-29T00:43:33.174Z,99.99
2018-05-29T00:44:33.155Z,99.99
2018-05-29T00:45:33.138Z,99.79
2018-05-29T00:46:33.139Z,99.99
2018-05-29T00:47:33.120Z,99.99
2018-05-29T00:48:33.108Z,99.99
2018-05-29T00:49:33.142Z,99.99
2018-05-29T00:50:33.094Z,99.99
2018-05-29T00:51:33.088Z,99.99
2018-05-29T00:52:33.069Z,99.99
2018-05-29T00:53:33.079Z,99.99
2018-05-29T00:54:33.053Z,99.99
2018-05-29T00:55:33.061Z,99.99
2018-05-29T00:56:33.046Z,99.99
2018-05-29T00:57:33.022Z,99.99
2018-05-29T00:58:33.018Z,99.99
2018-05-29T00:59:33.006Z,99.99
2018-05-29T01:00:33.015Z,99.99
2018-05-29T01:01:32.988Z,99.99
2018-05-29T01:02:32.977Z,99.99
2018-05-29T01:03:32.967Z,99.99
2018-05-29T01:04:32.960Z,99.99
2018-05-29T01:05:32.969Z,99.99
2018-05-29T01:06:32.939Z,99.88
2018-05-29T01:07:32.930Z,99.99
2018-05-29T01:08:32.924Z,99.99
2018-05-29T01:09:32.911Z,99.99
2018-05-29T01:10:32.905Z,99.99
2018-05-29T01:11:32.909Z,99.99
2018-05-29T01:12:32.883Z,99.99
2018-05-29T01:13:32.874Z,99.99
2018-05-29T01:14:32.867Z,99.99
2018-05-29T01:15:32.856Z,99.99
2018-05-29T01:16:32.858Z,99.99
2018-05-29T01:17:32.836Z,99.99
2018-05-29T01:18:32.828Z,99.99
2018-05-29T01:19:32.817Z,99.99
2018-05-29T01:20:32.805Z,99.99
2018-05-29T01:21:32.817Z,99.99
2018-05-29T01:22:32.787Z,99.99
2018-05-29T01:23:32.780Z,99.99
2018-05-29T01:24:32.769Z,99.99
2018-05-29T01:25:32.761Z,99.99
2018-05-29T01:26:32.750Z,99.99
2018-05-29T01:27:32.754Z,99.99
2018-05-29T01:28:32.731Z,99.99
2018-05-29T01:29:32.721Z,99.99
2018-05-29T01:30:32.717Z,99.99
2018-05-29T01:31:32.702Z,99.99
2018-05-29T01:32:32.711Z,99.99
2018-05-29T01:33:32.683Z,99.99
2018-05-29T01:34:32.677Z,99.99
2018-05-29T01:35:32.670Z,99.99
2018-05-29T01:36:32.657Z,99.99
2018-05-29T01:37:32.660Z,99.99
2018-05-29T01:38:32.656Z,99.99
2018-05-29T01:39:32.635Z,99.99
2018-05-29T01:40:32.616Z,99.99
2018-05-29T01:41:32.608Z,99.99
2018-05-29T01:42:32.595Z,99.99
2018-05-29T01:43:32.601Z,99.99
2018-05-29T01:44:32.596Z,99.99
2018-05-29T01:45:32.576Z,99.99
2018-05-29T01:46:32.563Z,99.99
2018-05-29T01:47:32.549Z,99.99
2018-05-29T01:48:32.557Z,99.99
2018-05-29T01:49:32.545Z,99.99
2018-05-29T01:50:32.519Z,99.99
2018-05-29T01:51:32.506Z,99.99
2018-05-29T01:52:32.500Z,99.99
2018-05-29T01:53:32.493Z,99.99
2018-05-29T01:54:32.496Z,99.99
2018-05-29T01:55:32.471Z,99.99
2018-05-29T01:56:32.463Z,99.99
2018-05-29T01:57:32.455Z,99.99
2018-05-29T01:58:32.444Z,99.99
2018-05-29T01:59:32.456Z,99.99
2018-05-29T02:00:32.420Z,99.99
2018-05-29T02:01:32.414Z,99.99
2018-05-29T02:02:32.416Z,99.99
2018-05-29T02:03:32.396Z,99.99
2018-05-29T02:04:32.431Z,99.99
2018-05-29T02:05:32.393Z,99.99
2018-05-29T02:06:32.368Z,99.99
2018-05-29T02:07:32.384Z,99.99
2018-05-29T02:08:32.352Z,99.99
2018-05-29T02:09:32.340Z,99.99
2018-05-29T02:10:32.361Z,99.99
2018-05-29T02:11:32.316Z,99.99
2018-05-29T02:12:32.309Z,99.99
2018-05-29T02:13:32.293Z,99.99
2018-05-29T02:14:32.327Z,99.99
2018-05-29T02:15:32.286Z,99.99
2018-05-29T02:16:32.262Z,99.99
2018-05-29T02:17:32.260Z,99.99
2018-05-29T02:18:32.249Z,99.99
2018-05-29T02:19:32.232Z,99.99
2018-05-29T02:20:32.245Z,99.99
2018-05-29T02:21:32.226Z,99.99
2018-05-29T02:22:32.205Z,99.99
2018-05-29T02:23:32.201Z,99.99
2018-05-29T02:24:32.181Z,99.99
2018-05-29T02:25:32.196Z,99.99
2018-05-29T02:26:32.184Z,99.99
2018-05-29T02:27:32.154Z,99.99
2018-05-29T02:28:32.145Z,99.99
2018-05-29T02:29:32.141Z,99.99
2018-05-29T02:30:32.129Z,99.99
2018-05-29T02:31:32.115Z,99.99
2018-05-29T02:32:53.125Z,99.99
2018-05-29T02:33:32.100Z,99.99
2018-05-29T02:34:32.089Z,99.99
2018-05-29T02:35:32.078Z,99.99
2018-05-29T02:36:32.065Z,99.99
2018-05-29T02:37:32.077Z,99.99
2018-05-29T02:38:32.065Z,99.99
2018-05-29T02:39:32.041Z,99.99
2018-05-29T02:40:32.041Z,99.99
2018-05-29T02:41:32.039Z,99.99
2018-05-29T02:42:32.037Z,99.99
2018-05-29T02:43:32.001Z,99.99
2018-05-29T02:44:31.992Z,99.99
2018-05-29T02:45:31.982Z,99.99
2018-05-29T02:46:31.970Z,99.99
2018-05-29T02:47:31.980Z,99.99
2018-05-29T02:48:31.950Z,99.99
2018-05-29T02:49:31.954Z,99.99
2018-05-29T02:50:31.929Z,99.99
2018-05-29T02:51:31.918Z,99.99
2018-05-29T02:52:31.921Z,99.99
2018-05-29T02:53:31.902Z,99.99
2018-05-29T02:54:31.888Z,99.99
2018-05-29T02:55:31.884Z,99.99
2018-05-29T02:56:31.873Z,99.99
2018-05-29T02:57:31.896Z,99.99
2018-05-29T02:58:31.849Z,99.99
2018-05-29T02:59:31.839Z,99.99
2018-05-29T03:00:31.827Z,99.99
2018-05-29T03:01:31.821Z,99.99
2018-05-29T03:02:31.807Z,99.99
2018-05-29T03:03:31.812Z,99.99
2018-05-29T03:04:31.788Z,99.99
2018-05-29T03:05:31.779Z,99.99
2018-05-29T03:06:31.775Z,99.99
2018-05-29T03:07:31.769Z,99.99
2018-05-29T03:08:31.764Z,99.99
2018-05-29T03:09:31.740Z,99.99
2018-05-29T03:10:31.729Z,99.99
2018-05-29T03:11:31.716Z,99.99
2018-05-29T03:12:31.708Z,99.99
2018-05-29T03:13:31.715Z,99.99
2018-05-29T03:14:31.702Z,99.99
2018-05-29T03:15:31.675Z,99.99
2018-05-29T03:16:31.662Z,99.99
2018-05-29T03:17:31.655Z,99.99
2018-05-29T03:18:31.649Z,99.99
2018-05-29T03:19:31.638Z,99.99
2018-05-29T03:20:31.645Z,99.99
2018-05-29T03:21:31.620Z,99.99
2018-05-29T03:22:31.613Z,99.99
2018-05-29T03:23:31.641Z,99.99
2018-05-29T03:24:31.604Z,99.99
2018-05-29T03:25:31.577Z,99.99
2018-05-29T03:26:31.588Z,99.99
2018-05-29T03:27:31.551Z,99.99
2018-05-29T03:28:31.539Z,99.99
2018-05-29T03:29:31.554Z,99.99
2018-05-29T03:30:31.540Z,99.99
2018-05-29T03:31:31.517Z,99.99
2018-05-29T03:32:31.507Z,99.99
2018-05-29T03:33:31.506Z,99.99
2018-05-29T03:34:31.486Z,99.99
2018-05-29T03:35:31.487Z,99.99
2018-05-29T03:36:31.465Z,99.99
2018-05-29T03:37:31.455Z,99.99
2018-05-29T03:38:31.443Z,99.99
2018-05-29T03:39:31.433Z,99.99
2018-05-29T03:40:31.440Z,99.99
2018-05-29T03:41:31.418Z,99.99
2018-05-29T03:42:31.399Z,99.99
2018-05-29T03:43:31.396Z,99.99
2018-05-29T03:44:31.384Z,99.99
2018-05-29T03:45:31.396Z,99.99
2018-05-29T03:46:31.369Z,99.99
2018-05-29T03:47:31.353Z,99.99
2018-05-29T03:48:31.363Z,99.99
2018-05-29T03:49:31.333Z,99.99
2018-05-29T03:50:31.329Z,99.99
2018-05-29T03:51:31.329Z,99.99
2018-05-29T03:52:31.298Z,99.99
2018-05-29T03:53:31.296Z,99.99
2018-05-29T03:54:31.281Z,99.99
2018-05-29T03:55:31.269Z,99.99
2018-05-29T03:56:31.279Z,99.99
2018-05-29T03:57:31.252Z,99.99
2018-05-29T03:58:31.275Z,99.99
2018-05-29T03:59:31.234Z,99.99
2018-05-29T04:00:31.218Z,99.99
2018-05-29T04:01:31.211Z,99.99
2018-05-29T04:02:31.218Z,99.99
2018-05-29T04:03:31.198Z,99.99
2018-05-29T04:04:31.183Z,99.99
2018-05-29T04:05:31.172Z,99.99
2018-05-29T04:06:31.160Z,99.99
2018-05-29T04:07:31.192Z,99.99
2018-05-29T04:08:31.154Z,99.99
2018-05-29T04:09:31.126Z,99.99
2018-05-29T04:10:31.170Z,99.99
2018-05-29T04:11:31.106Z,99.99
2018-05-29T04:12:31.109Z,99.99
2018-05-29T04:13:31.105Z,99.99
2018-05-29T04:14:31.081Z,99.99
2018-05-29T04:15:31.068Z,99.99
2018-05-29T04:16:31.059Z,99.99
2018-05-29T04:17:31.049Z,99.99
2018-05-29T04:18:31.055Z,99.99
2018-05-29T04:19:31.024Z,99.99
2018-05-29T04:20:31.037Z,99.99
2018-05-29T04:21:31.012Z,99.99
2018-05-29T04:22:31.001Z,99.99
2018-05-29T04:23:30.987Z,99.99
2018-05-29T04:24:30.985Z,99.99
2018-05-29T04:25:30.971Z,99.99
2018-05-29T04:26:30.973Z,99.99
2018-05-29T04:27:30.947Z,99.99
2018-05-29T04:28:30.944Z,99.99
2018-05-29T04:29:30.929Z,99.99
2018-05-29T04:30:30.940Z,99.99
2018-05-29T04:31:30.911Z,99.99
2018-05-29T04:32:30.899Z,99.99
2018-05-29T04:33:30.898Z,99.99
2018-05-29T04:34:30.929Z,99.99
2018-05-29T04:35:30.953Z,99.99
2018-05-29T04:36:30.855Z,99.99
2018-05-29T04:37:30.852Z,99.99
2018-05-29T04:38:30.842Z,99.99
2018-05-29T04:39:30.835Z,99.99
2018-05-29T04:40:30.889Z,99.99
2018-05-29T04:41:30.815Z,99.99
2018-05-29T04:42:30.823Z,99.99
2018-05-29T04:43:30.796Z,99.98
2018-05-29T04:44:30.779Z,99.99
2018-05-29T04:45:30.792Z,98.88
2018-05-29T04:46:30.762Z,98.39
2018-05-29T04:47:30.773Z,98.39
2018-05-29T04:48:30.745Z,98.63
2018-05-29T04:49:30.732Z,97.96
2018-05-29T04:50:30.731Z,97.67
2018-05-29T04:51:30.713Z,97.09
2018-05-29T04:52:30.725Z,97.19
2018-05-29T04:53:30.699Z,97.09
2018-05-29T04:54:30.689Z,96.99
2018-05-29T04:55:30.682Z,97.86
2018-05-29T04:56:30.679Z,97.77
2018-05-29T04:57:30.678Z,97.77
2018-05-29T04:58:30.672Z,97.96
2018-05-29T04:59:30.645Z,97.96
2018-05-29T05:00:30.649Z,97.91
2018-05-29T05:01:30.627Z,98.68
2018-05-29T05:02:30.676Z,98.35
2018-05-29T05:03:30.626Z,98.10
2018-05-29T05:04:30.600Z,98.49
2018-05-29T05:05:30.592Z,98.30
2018-05-29T05:06:30.583Z,98.88
2018-05-29T05:07:30.581Z,98.58
2018-05-29T05:08:30.563Z,98.88
2018-05-29T05:09:30.575Z,99.07
2018-05-29T05:10:30.545Z,98.97
2018-05-29T05:11:30.560Z,98.97
2018-05-29T05:12:30.534Z,99.16
2018-05-29T05:13:30.525Z,98.54
2018-05-29T05:14:30.525Z,98.30
2018-05-29T05:15:30.497Z,98.35
2018-05-29T05:16:30.493Z,98.83
2018-05-29T05:17:30.487Z,99.21
2018-05-29T05:18:30.484Z,97.57
2018-05-29T05:19:30.485Z,98.05
2018-05-29T05:20:30.476Z,97.86
2018-05-29T05:21:30.449Z,97.96
2018-05-29T05:22:30.444Z,97.96
2018-05-29T05:23:30.451Z,97.96
2018-05-29T05:24:30.430Z,98.35
2018-05-29T05:25:30.424Z,97.96
2018-05-29T05:26:30.407Z,97.96
2018-05-29T05:27:30.398Z,97.81
2018-05-29T05:28:30.392Z,98.00
2018-05-29T05:29:30.395Z,97.38
2018-05-29T05:30:30.397Z,96.94
2018-05-29T05:31:30.362Z,96.56
2018-05-29T05:32:30.356Z,96.84
2018-05-29T05:33:30.342Z,96.94
2018-05-29T05:34:30.334Z,96.84
2018-05-29T05:35:30.341Z,96.36
2018-05-29T05:36:30.321Z,96.80
2018-05-29T05:37:30.314Z,96.70
2018-05-29T05:38:30.301Z,97.28
2018-05-29T05:39:30.329Z,97.47
2018-05-29T05:40:30.285Z,97.77
2018-05-29T05:41:30.275Z,97.19
2018-05-29T05:42:30.272Z,97.14
2018-05-29T05:43:30.258Z,97.23
2018-05-29T05:44:30.252Z,98.00
2018-05-29T05:45:30.256Z,97.62
2018-05-29T05:46:30.253Z,97.81
2018-05-29T05:47:30.218Z,97.42
2018-05-29T05:48:30.218Z,97.23
2018-05-29T05:49:30.204Z,97.72
2018-05-29T05:50:30.208Z,96.60
2018-05-29T05:51:30.221Z,96.70
2018-05-29T05:52:30.186Z,97.18
2018-05-29T05:53:30.168Z,97.38
2018-05-29T05:54:30.161Z,96.99
2018-05-29T05:55:30.159Z,96.60
2018-05-29T05:56:30.146Z,96.26
2018-05-29T05:57:30.155Z,96.46
2018-05-29T05:58:30.149Z,96.07
2018-05-29T05:59:30.114Z,95.87
2018-05-29T06:00:30.115Z,94.62
2018-05-29T06:01:30.114Z,94.91
2018-05-29T06:02:30.117Z,95.39
2018-05-29T06:03:30.084Z,94.52
2018-05-29T06:04:30.083Z,93.75
2018-05-29T06:05:30.079Z,92.97
2018-05-29T06:06:30.085Z,93.12
2018-05-29T06:07:30.065Z,93.46
2018-05-29T06:08:30.039Z,93.21
2018-05-29T06:09:30.037Z,92.34
2018-05-29T06:10:30.032Z,92.15
2018-05-29T06:11:30.018Z,92.05
2018-05-29T06:12:30.024Z,91.47
2018-05-29T06:13:29.997Z,91.28
2018-05-29T06:14:29.991Z,90.64
2018-05-29T06:15:29.983Z,90.84
2018-05-29T06:16:29.977Z,90.06
2018-05-29T06:17:29.993Z,90.84
2018-05-29T06:18:29.966Z,90.64
2018-05-29T06:19:29.948Z,90.16
2018-05-29T06:20:29.943Z,89.77
2018-05-29T06:21:29.936Z,89.68
2018-05-29T06:22:29.945Z,88.85
2018-05-29T06:23:29.927Z,89.92
2018-05-29T06:24:29.911Z,89.82
2018-05-29T06:25:29.904Z,89.33
2018-05-29T06:26:29.891Z,88.46
2018-05-29T06:27:29.881Z,89.04
2018-05-29T06:28:29.898Z,88.65
2018-05-29T06:29:29.866Z,88.56
2018-05-29T06:30:29.862Z,89.09
2018-05-29T06:31:29.855Z,87.92
2018-05-29T06:32:29.852Z,88.79
2018-05-29T06:33:29.839Z,88.21
2018-05-29T06:34:29.846Z,87.63
2018-05-29T06:35:29.827Z,87.63
2018-05-29T06:36:29.831Z,86.76
2018-05-29T06:37:29.804Z,85.99
2018-05-29T06:38:29.799Z,86.57
2018-05-29T06:39:29.804Z,86.86
2018-05-29T06:40:29.798Z,86.86
2018-05-29T06:41:29.837Z,86.66
2018-05-29T06:42:29.779Z,86.57
2018-05-29T06:43:29.762Z,86.18
2018-05-29T06:44:29.813Z,85.64
2018-05-29T06:45:29.743Z,85.35
2018-05-29T06:46:29.737Z,85.44
2018-05-29T06:47:29.734Z,83.40
2018-05-29T06:48:29.729Z,84.28
2018-05-29T06:49:29.713Z,83.22
2018-05-29T06:50:29.728Z,80.79
2018-05-29T06:51:29.712Z,80.50
2018-05-29T06:52:29.737Z,79.57
2018-05-29T06:53:29.687Z,79.66
2018-05-29T06:54:29.670Z,78.40
2018-05-29T06:55:29.684Z,77.24
2018-05-29T06:56:29.661Z,76.98
2018-05-29T06:57:29.656Z,75.72
2018-05-29T06:58:29.646Z,74.33
2018-05-29T06:59:29.639Z,74.46
2018-05-29T07:00:29.655Z,73.78
2018-05-29T07:01:29.645Z,74.37
2018-05-29T07:02:29.614Z,74.17
2018-05-29T07:03:29.616Z,74.75
2018-05-29T07:04:29.596Z,74.46
2018-05-29T07:05:29.608Z,73.39
2018-05-29T07:06:29.603Z,72.91
2018-05-29T07:07:29.574Z,73.49
2018-05-29T07:08:29.575Z,73.16
2018-05-29T07:09:29.580Z,71.84
2018-05-29T07:10:29.564Z,71.84
2018-05-29T07:11:29.577Z,72.87
2018-05-29T07:12:29.547Z,72.58
2018-05-29T07:13:29.549Z,72.39
2018-05-29T07:14:29.552Z,73.39
2018-05-29T07:15:29.528Z,74.46
2018-05-29T07:16:29.509Z,71.94
2018-05-29T07:17:29.522Z,72.61
2018-05-29T07:18:29.500Z,72.61
2018-05-29T07:19:29.506Z,72.42
2018-05-29T07:20:29.490Z,72.52
2018-05-29T07:21:29.475Z,72.33
2018-05-29T07:22:29.487Z,72.03
2018-05-29T07:23:29.478Z,71.84
2018-05-29T07:24:29.450Z,72.03
2018-05-29T07:25:29.448Z,72.42
2018-05-29T07:26:29.436Z,70.97
2018-05-29T07:27:29.432Z,69.90
2018-05-29T07:28:29.423Z,70.29
2018-05-29T07:29:29.427Z,71.06
2018-05-29T07:30:29.404Z,70.97
2018-05-29T07:31:29.407Z,71.48
2018-05-29T07:32:29.402Z,71.20
2018-05-29T07:33:29.391Z,67.99
2018-05-29T07:34:29.391Z,66.14
2018-05-29T07:35:29.375Z,66.44
2018-05-29T07:36:29.364Z,67.31
2018-05-29T07:37:29.360Z,67.57
2018-05-29T07:38:29.351Z,67.57
2018-05-29T07:39:29.381Z,68.28
2018-05-29T07:40:29.334Z,67.80
2018-05-29T07:41:29.325Z,67.70
2018-05-29T07:42:29.330Z,68.28
2018-05-29T07:43:29.317Z,65.85
2018-05-29T07:44:29.325Z,65.85
2018-05-29T07:45:29.314Z,66.14
2018-05-29T07:46:29.306Z,65.17
2018-05-29T07:47:29.288Z,67.02
2018-05-29T07:48:29.283Z,65.95
2018-05-29T07:49:29.278Z,65.27
2018-05-29T07:50:29.289Z,65.17
2018-05-29T07:51:29.258Z,65.27
2018-05-29T07:52:29.257Z,65.82
2018-05-29T07:53:29.248Z,66.11
2018-05-29T07:54:29.237Z,66.30
2018-05-29T07:55:29.246Z,66.69
2018-05-29T07:56:29.225Z,66.11
2018-05-29T07:57:29.220Z,66.05
2018-05-29T07:58:29.210Z,65.37
2018-05-29T07:59:29.201Z,65.85
2018-05-29T08:00:29.231Z,65.95
2018-05-29T08:01:29.184Z,65.95
2018-05-29T08:02:29.194Z,66.40
2018-05-29T08:03:29.184Z,68.08
2018-05-29T08:04:29.167Z,66.86
2018-05-29T08:05:29.163Z,66.17
2018-05-29T08:06:29.226Z,66.56
2018-05-29T08:07:29.150Z,67.34
2018-05-29T08:08:29.182Z,67.24
2018-05-29T08:09:29.129Z,67.15
2018-05-29T08:10:29.124Z,65.50
2018-05-29T08:11:29.147Z,66.47
2018-05-29T08:12:29.112Z,65.01
2018-05-29T08:13:29.098Z,65.30
2018-05-29T08:14:29.093Z,65.01
2018-05-29T08:15:29.109Z,65.75
2018-05-29T08:16:29.073Z,66.56
2018-05-29T08:17:29.082Z,65.20
2018-05-29T08:18:29.092Z,66.08
2018-05-29T08:19:29.051Z,66.08
2018-05-29T08:20:29.047Z,66.34
2018-05-29T08:21:29.051Z,66.76
2018-05-29T08:22:29.048Z,66.56
2018-05-29T08:23:29.045Z,66.47
2018-05-29T08:24:29.019Z,65.63
2018-05-29T08:25:29.011Z,66.40
2018-05-29T08:26:29.005Z,65.82
2018-05-29T08:27:28.993Z,65.23
2018-05-29T08:28:28.991Z,63.52
2018-05-29T08:29:29.006Z,62.35
2018-05-29T08:30:28.985Z,62.16
2018-05-29T08:31:28.977Z,64.20
2018-05-29T08:32:28.973Z,64.49
2018-05-29T08:33:28.956Z,62.35
2018-05-29T08:34:28.959Z,62.45
2018-05-29T08:35:28.945Z,62.90
2018-05-29T08:36:28.950Z,63.71
2018-05-29T08:37:28.949Z,61.77
2018-05-29T08:38:28.918Z,61.77
2018-05-29T08:39:28.954Z,62.57
2018-05-29T08:40:28.909Z,64.26
2018-05-29T08:41:28.909Z,63.29
2018-05-29T08:42:28.893Z,62.22
2018-05-29T08:43:28.886Z,62.93
2018-05-29T08:44:28.877Z,62.25
2018-05-29T08:45:28.879Z,63.32
2018-05-29T08:46:28.868Z,62.28
2018-05-29T08:47:28.858Z,59.94
2018-05-29T08:48:28.845Z,59.64
2018-05-29T08:49:28.863Z,60.13
2018-05-29T08:50:28.857Z,59.26
2018-05-29T08:51:28.841Z,58.22
2018-05-29T08:52:28.826Z,58.70
2018-05-29T08:53:28.816Z,57.99
2018-05-29T08:54:28.813Z,58.31
2018-05-29T08:55:28.817Z,58.63
2018-05-29T08:56:28.792Z,57.56
2018-05-29T08:57:28.788Z,57.00
2018-05-29T08:58:28.784Z,55.76
2018-05-29T08:59:28.785Z,55.27
2018-05-29T09:00:28.795Z,56.45
2018-05-29T09:01:28.800Z,55.49
2018-05-29T09:02:28.759Z,53.47
2018-05-29T09:03:28.747Z,52.78
2018-05-29T09:04:28.744Z,53.91
2018-05-29T09:05:28.749Z,56.32
2018-05-29T09:06:28.764Z,56.81
2018-05-29T09:07:28.757Z,55.30
2018-05-29T09:08:28.718Z,57.25
2018-05-29T09:09:28.716Z,55.59
2018-05-29T09:10:28.719Z,55.32
2018-05-29T09:11:28.696Z,55.42
2018-05-29T09:12:28.695Z,53.62
2018-05-29T09:13:28.709Z,53.64
2018-05-29T09:14:28.687Z,52.00
2018-05-29T09:15:28.681Z,53.33
2018-05-29T09:16:28.673Z,51.88
2018-05-29T09:17:28.674Z,51.10
2018-05-29T09:18:28.677Z,51.76
2018-05-29T09:19:28.658Z,52.64
2018-05-29T09:20:28.653Z,53.20
2018-05-29T09:21:28.651Z,54.21
2018-05-29T09:22:28.642Z,53.23
2018-05-29T09:23:28.657Z,54.40
2018-05-29T09:24:28.635Z,54.60
2018-05-29T09:25:28.636Z,53.28
2018-05-29T09:26:28.634Z,53.08
2018-05-29T09:27:28.636Z,51.66
2018-05-29T09:28:28.661Z,48.45
2018-05-29T09:29:28.622Z,49.24
2018-05-29T09:30:28.625Z,47.69
2018-05-29T09:31:28.618Z,46.24
2018-05-29T09:32:28.618Z,47.03
2018-05-29T09:33:28.641Z,49.33
2018-05-29T09:34:28.629Z,50.20
2018-05-29T09:35:28.641Z,50.98
2018-05-29T09:36:28.632Z,50.49
2018-05-29T09:37:28.624Z,51.54
2018-05-29T09:38:28.611Z,48.94
2018-05-29T09:39:28.618Z,48.55
2018-05-29T09:40:28.632Z,48.77
2018-05-29T09:41:28.675Z,49.73
2018-05-29T09:42:28.614Z,50.34
2018-05-29T09:43:28.615Z,47.47
2018-05-29T09:44:28.629Z,47.02
2018-05-29T09:45:28.647Z,44.29
2018-05-29T09:46:28.617Z,45.30
2018-05-29T09:47:28.619Z,47.15
2018-05-29T09:48:28.613Z,47.25
2018-05-29T09:49:28.626Z,45.70
2018-05-29T09:50:28.635Z,44.73
2018-05-29T09:51:28.666Z,45.38
2018-05-29T09:52:28.617Z,45.87
2018-05-29T09:53:28.637Z,44.54
2018-05-29T09:54:28.665Z,45.64
2018-05-29T09:55:28.653Z,46.23
2018-05-29T09:56:28.641Z,43.28
2018-05-29T09:57:28.626Z,44.44
2018-05-29T09:58:28.630Z,43.26
2018-05-29T09:59:28.632Z,44.24
2018-05-29T10:00:28.636Z,45.48
2018-05-29T10:01:28.653Z,46.85
2018-05-29T10:02:28.642Z,46.17
2018-05-29T10:03:28.649Z,48.35
2018-05-29T10:04:28.659Z,49.77
2018-05-29T10:05:28.646Z,49.95
2018-05-29T10:06:28.664Z,51.56
2018-05-29T10:07:28.670Z,55.22
2018-05-29T10:08:28.648Z,55.91
2018-05-29T10:09:28.651Z,52.51
2018-05-29T10:10:28.649Z,52.47
2018-05-29T10:11:28.658Z,52.89
2018-05-29T10:12:28.661Z,49.99
2018-05-29T10:13:28.655Z,50.44
2018-05-29T10:14:28.651Z,50.24
2018-05-29T10:15:28.655Z,48.50
2018-05-29T10:16:28.646Z,47.34
2018-05-29T10:17:28.669Z,45.23
2018-05-29T10:18:28.659Z,45.62
2018-05-29T10:19:28.676Z,43.50
2018-05-29T10:20:28.649Z,43.03
2018-05-29T10:21:28.655Z,44.54
2018-05-29T10:22:28.674Z,46.78
2018-05-29T10:23:28.659Z,44.54
2018-05-29T10:24:28.665Z,46.48
2018-05-29T10:25:28.658Z,45.65
2018-05-29T10:26:28.668Z,48.18
2018-05-29T10:27:28.680Z,49.07
2018-05-29T10:28:28.664Z,48.11
2018-05-29T10:29:28.667Z,45.85
2018-05-29T10:30:28.667Z,47.76
2018-05-29T10:31:28.670Z,46.45
2018-05-29T10:32:28.685Z,43.18
2018-05-29T10:33:28.671Z,44.83
2018-05-29T10:34:28.671Z,45.64
2018-05-29T10:35:28.669Z,46.35
2018-05-29T10:36:28.671Z,46.21
2018-05-29T10:37:28.673Z,47.07
2018-05-29T10:38:28.703Z,46.21
2018-05-29T10:39:28.682Z,46.48
2018-05-29T10:40:28.681Z,47.34
2018-05-29T10:41:28.684Z,47.03
2018-05-29T10:42:28.693Z,46.17
2018-05-29T10:43:28.704Z,45.79
2018-05-29T10:44:28.693Z,47.49
2018-05-29T10:45:28.710Z,44.56
2018-05-29T10:46:28.694Z,45.07
2018-05-29T10:47:28.696Z,44.19
2018-05-29T10:48:28.714Z,43.10
2018-05-29T10:49:28.703Z,44.07
2018-05-29T10:50:28.703Z,43.18
2018-05-29T10:51:28.704Z,43.08
2018-05-29T10:52:28.750Z,44.88
2018-05-29T10:53:28.708Z,47.41
2018-05-29T10:54:28.729Z,44.64
2018-05-29T10:55:28.715Z,46.31
2018-05-29T10:56:28.719Z,47.36
2018-05-29T10:57:28.739Z,45.79
2018-05-29T10:58:28.719Z,46.48
2018-05-29T10:59:28.737Z,47.34
2018-05-29T11:00:28.734Z,48.40
2018-05-29T11:01:28.749Z,49.08
2018-05-29T11:02:28.742Z,46.93
2018-05-29T11:03:28.743Z,48.21
2018-05-29T11:04:28.758Z,49.87
2018-05-29T11:05:28.732Z,47.71
2018-05-29T11:06:28.738Z,48.86
2018-05-29T11:07:28.737Z,49.55
2018-05-29T11:08:28.737Z,50.09
2018-05-29T11:09:28.758Z,51.07
2018-05-29T11:10:28.738Z,51.56
2018-05-29T11:11:28.743Z,50.29
2018-05-29T11:12:28.741Z,50.22
2018-05-29T11:13:28.743Z,53.55
2018-05-29T11:14:28.758Z,52.47
2018-05-29T11:15:28.781Z,49.26
2018-05-29T11:16:28.742Z,50.90
2018-05-29T11:17:28.765Z,47.96
2018-05-29T11:18:28.752Z,50.02
2018-05-29T11:19:28.749Z,50.12
2018-05-29T11:20:28.755Z,51.46
2018-05-29T11:21:28.784Z,51.73
2018-05-29T11:22:28.755Z,51.93
2018-05-29T11:23:28.748Z,52.74
2018-05-29T11:24:28.759Z,50.24
2018-05-29T11:25:28.768Z,49.31
2018-05-29T11:26:28.755Z,47.49
2018-05-29T11:27:28.753Z,45.52
2018-05-29T11:28:28.776Z,47.49
2018-05-29T11:29:28.768Z,47.92
2018-05-29T11:30:28.753Z,47.26
2018-05-29T11:31:28.772Z,45.24
2018-05-29T11:32:28.754Z,45.83
2018-05-29T11:33:28.755Z,44.84
2018-05-29T11:34:28.759Z,44.88
2018-05-29T11:35:28.758Z,46.58
2018-05-29T11:36:28.785Z,48.67
2018-05-29T11:37:28.765Z,48.92
2018-05-29T11:38:28.778Z,50.27
2018-05-29T11:39:28.765Z,49.55
2018-05-29T11:40:28.772Z,50.12
2018-05-29T11:41:28.785Z,50.39
2018-05-29T11:42:28.847Z,51.25
2018-05-29T11:43:28.816Z,51.90
2018-05-29T11:44:28.775Z,53.17
2018-05-29T11:45:28.782Z,53.66
2018-05-29T11:46:28.790Z,54.03
2018-05-29T11:47:28.785Z,55.08
2018-05-29T11:48:28.776Z,53.32
2018-05-29T11:49:28.771Z,53.71
2018-05-29T11:50:28.789Z,53.81
2018-05-29T11:51:28.776Z,56.54
2018-05-29T11:52:28.786Z,55.18
2018-05-29T11:53:28.801Z,56.64
2018-05-29T11:54:28.773Z,56.25
2018-05-29T11:55:28.780Z,56.54
2018-05-29T11:56:28.768Z,56.25
2018-05-29T11:57:28.765Z,55.57
2018-05-29T11:58:28.769Z,56.64
2018-05-29T11:59:28.779Z,56.84
2018-05-29T12:00:28.773Z,57.71
2018-05-29T12:01:28.762Z,57.62
2018-05-29T12:02:28.887Z,55.59
2018-05-29T12:03:28.778Z,54.15
2018-05-29T12:04:28.769Z,54.99
2018-05-29T12:05:28.758Z,52.76
2018-05-29T12:06:28.749Z,52.47
2018-05-29T12:07:28.751Z,50.71
2018-05-29T12:08:28.764Z,49.75
2018-05-29T12:09:28.750Z,50.49
2018-05-29T12:10:28.763Z,51.78
2018-05-29T12:11:28.801Z,51.00
2018-05-29T12:12:28.744Z,49.29
2018-05-29T12:13:28.743Z,49.53
2018-05-29T12:14:28.772Z,47.59
2018-05-29T12:15:28.733Z,45.75
2018-05-29T12:16:28.743Z,45.20
2018-05-29T12:17:28.764Z,44.81
2018-05-29T12:18:28.743Z,45.79
2018-05-29T12:19:28.743Z,47.39
2018-05-29T12:20:28.767Z,44.26
2018-05-29T12:21:28.743Z,44.17
2018-05-29T12:22:28.751Z,46.01
2018-05-29T12:23:28.743Z,46.01
2018-05-29T12:24:28.751Z,46.41
2018-05-29T12:25:28.744Z,47.17
2018-05-29T12:26:28.772Z,47.25
2018-05-29T12:27:28.765Z,46.19
2018-05-29T12:28:28.763Z,47.54
2018-05-29T12:29:28.761Z,48.21
2018-05-29T12:30:28.778Z,49.26
2018-05-29T12:31:28.781Z,46.37
2018-05-29T12:32:28.764Z,47.03
2018-05-29T12:33:28.763Z,46.94
2018-05-29T12:34:28.785Z,49.36
2018-05-29T12:35:28.776Z,48.87
2018-05-29T12:36:28.790Z,49.36
2018-05-29T12:37:28.771Z,50.34
2018-05-29T12:38:29.407Z,51.98
2018-05-29T12:39:28.776Z,52.73
2018-05-29T12:40:28.774Z,51.46
2018-05-29T12:41:28.805Z,50.68
2018-05-29T12:42:28.786Z,51.03
2018-05-29T12:43:28.775Z,52.69
2018-05-29T12:44:28.782Z,53.25
2018-05-29T12:45:28.782Z,53.32
2018-05-29T12:46:28.790Z,53.42
2018-05-29T12:47:28.793Z,53.68
2018-05-29T12:48:28.780Z,54.07
2018-05-29T12:49:28.776Z,54.75
2018-05-29T12:50:28.776Z,54.85
2018-05-29T12:51:28.780Z,53.97
2018-05-29T12:52:28.806Z,55.15